createdAt,value
2022-12-08T00:01:23.873Z,-0.09
2022-12-08T00:03:51.693Z,0.31
2022-12-08T00:06:37.055Z,0.08
2022-12-08T00:09:22.051Z,0.23
2022-12-08T00:11:49.582Z,0.60
2022-12-08T00:14:16.286Z,0.68
2022-12-08T00:16:43.175Z,0.39
2022-12-08T00:19:10.282Z,0.41
2022-12-08T00:21:36.855Z,-0.02
2022-12-08T00:24:03.757Z,0.31
2022-12-08T00:26:30.583Z,0.38
2022-12-08T00:28:57.531Z,0.46
2022-12-08T00:31:24.179Z,0.35
2022-12-08T00:33:50.904Z,0.23
2022-12-08T00:36:17.542Z,0.15
2022-12-08T00:38:45.057Z,0.20
2022-12-08T00:41:17.402Z,0.03
2022-12-08T00:43:44.354Z,0.00
2022-12-08T00:46:12.212Z,0.18
2022-12-08T00:48:39.607Z,0.33
2022-12-08T00:51:06.323Z,-0.08
2022-12-08T00:53:32.995Z,-0.02
2022-12-08T00:55:59.718Z,-0.08
2022-12-08T00:58:26.476Z,-0.04
2022-12-08T01:00:53.302Z,-0.05
2022-12-08T01:03:20.051Z,-0.09
2022-12-08T01:05:46.744Z,0.19
2022-12-08T01:08:13.466Z,0.43
2022-12-08T01:10:40.822Z,0.07
2022-12-08T01:13:07.561Z,-0.05
2022-12-08T01:15:34.263Z,0.09
2022-12-08T01:18:01.033Z,0.38
2022-12-08T01:20:27.583Z,0.24
2022-12-08T01:22:54.348Z,0.13
2022-12-08T01:25:21.279Z,0.07
2022-12-08T01:27:48.358Z,-0.16
2022-12-08T01:30:15.038Z,-0.08
2022-12-08T01:32:41.846Z,-0.33
2022-12-08T01:35:08.673Z,-0.36
2022-12-08T01:37:35.365Z,-0.28
2022-12-08T01:40:02.408Z,-0.22
2022-12-08T01:42:30.798Z,-0.59
2022-12-08T01:45:03.003Z,-0.32
2022-12-08T01:47:41.770Z,-0.38
2022-12-08T01:50:11.616Z,-0.47
2022-12-08T01:52:46.736Z,-0.24
2022-12-08T01:55:20.437Z,-0.44
2022-12-08T01:57:54.636Z,-0.40
2022-12-08T02:00:22.873Z,-0.02
2022-12-08T02:02:57.472Z,-0.35
2022-12-08T02:05:27.360Z,-0.51
2022-12-08T02:07:55.729Z,-0.29
2022-12-08T02:10:24.577Z,-0.44
2022-12-08T02:12:53.978Z,-0.16
2022-12-08T02:15:43.016Z,-0.28
2022-12-08T02:18:19.297Z,-0.21
2022-12-08T02:20:57.128Z,-0.55
2022-12-08T02:23:35.784Z,-0.46
2022-12-08T02:26:27.492Z,-0.39
2022-12-08T02:29:13.353Z,-0.22
2022-12-08T02:32:07.662Z,-0.24
2022-12-08T02:34:37.756Z,-0.17
2022-12-08T02:37:27.729Z,-0.04
2022-12-08T02:40:06.961Z,-0.14
2022-12-08T02:42:42.897Z,-0.18
2022-12-08T02:45:33.992Z,-0.02
2022-12-08T02:48:00.852Z,0.06
2022-12-08T02:50:27.961Z,-0.12
2022-12-08T02:52:55.049Z,-0.06
2022-12-08T02:55:32.002Z,0.07
2022-12-08T02:58:13.595Z,0.03
2022-12-08T03:00:57.383Z,0.09
2022-12-08T03:03:44.660Z,0.17
2022-12-08T03:06:33.379Z,0.32
2022-12-08T03:09:08.425Z,0.13
2022-12-08T03:11:47.491Z,0.00
2022-12-08T03:14:17.340Z,0.13
2022-12-08T03:16:48.384Z,0.09
2022-12-08T03:19:25.606Z,0.23
2022-12-08T03:22:02.771Z,0.24
2022-12-08T03:24:41.822Z,0.16
2022-12-08T03:27:16.703Z,0.10
2022-12-08T03:29:43.670Z,0.04
2022-12-08T03:32:22.469Z,0.01
2022-12-08T03:34:51.593Z,0.29
2022-12-08T03:37:18.486Z,0.24
2022-12-08T03:39:45.133Z,0.09
2022-12-08T03:42:12.153Z,0.05
2022-12-08T03:44:38.860Z,-0.17
2022-12-08T03:47:05.526Z,-0.05
2022-12-08T03:49:32.307Z,-0.10
2022-12-08T03:51:58.867Z,0.03
2022-12-08T03:54:25.589Z,0.13
2022-12-08T03:56:52.446Z,0.16
2022-12-08T03:59:19.270Z,0.06
2022-12-08T04:01:45.962Z,0.08
2022-12-08T04:04:12.617Z,0.16
2022-12-08T04:06:39.233Z,-0.18
2022-12-08T04:09:06.040Z,-0.13
2022-12-08T04:11:32.728Z,-0.23
2022-12-08T04:13:59.353Z,-0.09
2022-12-08T04:16:27.889Z,-0.16
2022-12-08T04:18:55.115Z,-0.20
2022-12-08T04:21:21.970Z,-0.28
2022-12-08T04:23:48.574Z,-0.20
2022-12-08T04:26:15.847Z,-0.15
2022-12-08T04:28:42.758Z,-0.13
2022-12-08T04:31:10.721Z,-0.15
2022-12-08T04:33:37.470Z,-0.13
2022-12-08T04:36:05.469Z,-0.31
2022-12-08T04:38:32.941Z,-0.15
2022-12-08T04:40:59.785Z,-0.47
2022-12-08T04:43:26.461Z,-0.41
2022-12-08T04:45:53.136Z,-0.21
2022-12-08T04:48:19.785Z,-0.31
2022-12-08T04:50:46.449Z,-0.57
2022-12-08T04:53:14.390Z,-0.49
2022-12-08T04:55:43.917Z,-0.69
2022-12-08T04:58:15.761Z,-0.68
2022-12-08T05:00:43.361Z,-0.51
2022-12-08T05:03:10.246Z,-0.86
2022-12-08T05:05:36.783Z,-0.93
2022-12-08T05:08:04.544Z,-1.01
2022-12-08T05:10:31.772Z,-0.94
2022-12-08T05:13:00.913Z,-0.82
2022-12-08T05:15:27.669Z,-0.91
2022-12-08T05:17:54.315Z,-0.97
2022-12-08T05:20:21.299Z,-1.00
2022-12-08T05:22:48.216Z,-0.86
2022-12-08T05:25:15.042Z,-0.84
2022-12-08T05:27:42.116Z,-0.71
2022-12-08T05:30:08.933Z,-0.85
2022-12-08T05:32:38.596Z,-0.83
2022-12-08T05:35:05.595Z,-0.89
2022-12-08T05:37:34.874Z,-0.65
2022-12-08T05:40:02.058Z,-0.68
2022-12-08T05:42:28.943Z,-0.72
2022-12-08T05:44:55.598Z,-0.61
2022-12-08T05:47:22.416Z,-0.59
2022-12-08T05:49:48.965Z,-0.56
2022-12-08T05:52:16.977Z,-0.66
2022-12-08T05:54:44.325Z,-0.58
2022-12-08T05:57:12.182Z,-0.65
2022-12-08T05:59:39.756Z,-0.63
2022-12-08T06:02:06.656Z,-0.67
2022-12-08T06:04:33.548Z,-0.81
2022-12-08T06:07:00.219Z,-0.71
2022-12-08T06:09:26.989Z,-0.86
2022-12-08T06:11:53.713Z,-0.76
2022-12-08T06:14:20.556Z,-0.70
2022-12-08T06:16:50.095Z,-0.86
2022-12-08T06:19:17.823Z,-0.99
2022-12-08T06:21:44.639Z,-0.82
2022-12-08T06:24:12.096Z,-0.91
2022-12-08T06:26:40.316Z,-0.98
2022-12-08T06:29:07.805Z,-1.23
2022-12-08T06:31:34.581Z,-1.12
2022-12-08T06:34:01.449Z,-0.89
2022-12-08T06:36:29.024Z,-0.98
2022-12-08T06:38:56.711Z,-0.84
2022-12-08T06:41:23.529Z,-0.92
2022-12-08T06:43:50.128Z,-1.03
2022-12-08T06:46:19.040Z,-1.08
2022-12-08T06:48:46.080Z,-1.33
2022-12-08T06:51:16.299Z,-1.21
2022-12-08T06:53:43.919Z,-1.21
2022-12-08T06:56:12.022Z,-1.30
2022-12-08T06:58:38.739Z,-1.00
2022-12-08T07:01:11.871Z,-1.00
2022-12-08T07:03:39.814Z,-0.97
2022-12-08T07:06:07.024Z,-0.98
2022-12-08T07:08:34.445Z,-0.69
2022-12-08T07:11:07.781Z,-0.80
2022-12-08T07:13:34.633Z,-0.91
2022-12-08T07:16:01.169Z,-0.63
2022-12-08T07:18:27.846Z,-0.92
2022-12-08T07:20:54.419Z,-0.74
2022-12-08T07:23:21.047Z,-0.70
2022-12-08T07:25:47.629Z,-0.63
2022-12-08T07:28:14.326Z,-0.78
2022-12-08T07:30:41.208Z,-0.87
2022-12-08T07:33:07.920Z,-0.67
2022-12-08T07:35:35.385Z,-0.77
2022-12-08T07:38:02.450Z,-0.82
2022-12-08T07:40:29.309Z,-0.63
2022-12-08T07:42:55.918Z,-0.70
2022-12-08T07:45:28.218Z,-0.77
2022-12-08T07:47:58.126Z,-0.75
2022-12-08T07:50:24.639Z,-0.85
2022-12-08T07:52:51.801Z,-0.55
2022-12-08T07:55:18.428Z,-0.48
2022-12-08T07:57:44.963Z,-0.64
2022-12-08T08:00:12.377Z,-0.67
2022-12-08T08:02:39.331Z,-0.51
2022-12-08T08:05:06.557Z,-0.53
2022-12-08T08:07:33.406Z,-0.63
2022-12-08T08:09:59.985Z,-0.62
2022-12-08T08:12:31.636Z,-0.77
2022-12-08T08:15:00.193Z,-0.62
2022-12-08T08:17:27.394Z,-0.63
2022-12-08T08:19:54.207Z,-0.86
2022-12-08T08:22:20.962Z,-0.65
2022-12-08T08:24:47.585Z,-0.39
2022-12-08T08:27:14.401Z,-0.39
2022-12-08T08:29:41.119Z,-0.45
2022-12-08T08:32:07.804Z,-0.23
2022-12-08T08:34:34.499Z,-0.29
2022-12-08T08:37:02.019Z,-0.19
2022-12-08T08:39:30.175Z,-0.08
2022-12-08T08:41:57.005Z,-0.25
2022-12-08T08:44:23.928Z,-0.06
2022-12-08T08:46:52.014Z,0.15
2022-12-08T08:49:18.821Z,0.12
2022-12-08T08:51:46.224Z,0.07
2022-12-08T08:54:13.021Z,0.31
2022-12-08T08:56:39.590Z,0.24
2022-12-08T08:59:06.720Z,0.63
2022-12-08T09:01:34.152Z,0.67
2022-12-08T09:04:01.462Z,1.18
2022-12-08T09:06:28.556Z,0.94
2022-12-08T09:08:55.583Z,1.05
2022-12-08T09:11:23.544Z,0.78
2022-12-08T09:13:51.677Z,0.87
2022-12-08T09:16:19.276Z,1.23
2022-12-08T09:18:46.313Z,1.13
2022-12-08T09:21:16.726Z,1.16
2022-12-08T09:23:44.076Z,1.66
2022-12-08T09:26:10.834Z,1.37
2022-12-08T09:28:37.634Z,1.02
2022-12-08T09:31:04.799Z,1.34
2022-12-08T09:33:31.761Z,1.56
2022-12-08T09:36:02.847Z,1.56
2022-12-08T09:38:31.953Z,1.66
2022-12-08T09:40:59.778Z,1.47
2022-12-08T09:43:38.160Z,1.17
2022-12-08T09:46:10.550Z,1.28
2022-12-08T09:48:47.544Z,1.58
2022-12-08T09:51:16.275Z,1.52
2022-12-08T09:53:48.272Z,1.79
2022-12-08T09:56:14.936Z,1.58
2022-12-08T09:58:53.792Z,1.47
2022-12-08T10:01:26.721Z,1.66
2022-12-08T10:03:55.957Z,1.67
2022-12-08T10:06:33.566Z,1.80
2022-12-08T10:09:29.343Z,1.72
2022-12-08T10:12:19.970Z,1.72
2022-12-08T10:14:54.861Z,1.55
2022-12-08T10:17:42.614Z,1.85
2022-12-08T10:20:15.183Z,2.13
2022-12-08T10:22:44.867Z,1.76
2022-12-08T10:25:35.269Z,2.34
2022-12-08T10:28:01.972Z,1.74
2022-12-08T10:30:28.644Z,2.24
2022-12-08T10:32:55.493Z,2.27
2022-12-08T10:35:23.408Z,2.42
2022-12-08T10:37:58.999Z,2.81
2022-12-08T10:40:29.368Z,2.38
2022-12-08T10:43:01.396Z,2.87
2022-12-08T10:45:37.683Z,2.66
2022-12-08T10:48:12.964Z,2.60
2022-12-08T10:50:45.691Z,2.27
2022-12-08T10:53:14.221Z,2.09
2022-12-08T10:55:47.778Z,2.63
2022-12-08T10:58:41.931Z,2.87
2022-12-08T11:01:26.677Z,3.11
2022-12-08T11:04:05.310Z,3.23
2022-12-08T11:06:35.458Z,3.34
2022-12-08T11:09:06.780Z,3.13
2022-12-08T11:11:48.060Z,3.36
2022-12-08T11:14:26.250Z,3.85
2022-12-08T11:16:56.460Z,3.19
2022-12-08T11:19:27.964Z,3.61
2022-12-08T11:21:54.791Z,3.90
2022-12-08T11:24:25.786Z,3.50
2022-12-08T11:26:59.281Z,2.87
2022-12-08T11:29:28.179Z,3.54
2022-12-08T11:32:17.675Z,3.28
2022-12-08T11:35:06.780Z,3.01
2022-12-08T11:37:40.205Z,2.81
2022-12-08T11:40:20.331Z,3.06
2022-12-08T11:43:05.691Z,3.33
2022-12-08T11:45:35.194Z,3.54
2022-12-08T11:48:24.986Z,3.31
2022-12-08T11:51:03.516Z,3.30
2022-12-08T11:53:43.055Z,3.49
2022-12-08T11:56:29.933Z,3.76
2022-12-08T11:59:01.639Z,3.55
2022-12-08T12:01:28.295Z,2.72
2022-12-08T12:03:58.040Z,2.64
2022-12-08T12:06:57.809Z,2.83
2022-12-08T12:09:58.232Z,2.59
2022-12-08T12:12:52.579Z,3.14
2022-12-08T12:15:28.465Z,2.86
2022-12-08T12:18:16.745Z,3.03
2022-12-08T12:21:07.878Z,3.32
2022-12-08T12:24:02.536Z,3.18
2022-12-08T12:26:31.916Z,3.68
2022-12-08T12:29:05.850Z,3.97
2022-12-08T12:31:37.309Z,3.46
2022-12-08T12:34:27.554Z,3.04
2022-12-08T12:36:58.219Z,3.10
2022-12-08T12:39:30.384Z,3.03
2022-12-08T12:42:00.927Z,3.23
2022-12-08T12:44:27.700Z,3.13
2022-12-08T12:47:01.407Z,3.10
2022-12-08T12:49:40.597Z,3.96
2022-12-08T12:52:10.365Z,4.41
2022-12-08T12:54:42.659Z,4.68
2022-12-08T12:57:09.454Z,4.65
2022-12-08T12:59:55.173Z,4.41
2022-12-08T13:02:33.388Z,3.85
2022-12-08T13:05:15.716Z,3.51
2022-12-08T13:07:50.012Z,3.81
2022-12-08T13:10:19.124Z,3.96
2022-12-08T13:13:01.362Z,5.23
2022-12-08T13:15:35.048Z,4.30
2022-12-08T13:18:02.009Z,4.30
2022-12-08T13:20:28.748Z,3.86
2022-12-08T13:23:26.304Z,3.16
2022-12-08T13:26:09.250Z,3.52
2022-12-08T13:28:58.367Z,3.57
2022-12-08T13:31:45.050Z,3.97
2022-12-08T13:34:30.170Z,4.30
2022-12-08T13:37:15.489Z,3.66
2022-12-08T13:39:49.790Z,4.04
2022-12-08T13:42:35.247Z,3.97
2022-12-08T13:45:39.820Z,3.98
2022-12-08T13:48:23.548Z,3.81
2022-12-08T13:59:19.219Z,3.32
2022-12-08T14:01:48.460Z,3.10
2022-12-08T14:04:42.567Z,3.33
2022-12-08T14:07:06.103Z,3.01
2022-12-08T14:09:36.808Z,2.75
2022-12-08T14:12:23.092Z,2.89
2022-12-08T14:15:02.968Z,2.42
2022-12-08T14:17:30.646Z,2.53
2022-12-08T14:19:58.655Z,2.63
2022-12-08T14:22:32.304Z,2.10
2022-12-08T14:24:59.019Z,2.18
2022-12-08T14:27:30.049Z,2.20
2022-12-08T14:30:00.309Z,1.80
2022-12-08T14:32:33.115Z,1.95
2022-12-08T14:35:08.877Z,2.25
2022-12-08T14:37:42.247Z,2.25
2022-12-08T14:40:28.747Z,1.79
2022-12-08T14:43:07.730Z,1.78
2022-12-08T14:45:40.557Z,1.51
2022-12-08T14:48:30.878Z,1.43
2022-12-08T14:51:03.240Z,1.71
2022-12-08T14:53:39.615Z,1.85
2022-12-08T14:56:09.701Z,1.74
2022-12-08T14:58:36.390Z,1.78
2022-12-08T15:01:06.451Z,1.77
2022-12-08T15:03:33.497Z,1.48
2022-12-08T15:06:06.354Z,1.64
2022-12-08T15:08:33.620Z,1.87
2022-12-08T15:11:34.185Z,1.63
2022-12-08T15:14:01.021Z,1.64
2022-12-08T15:16:32.048Z,1.83
2022-12-08T15:19:04.229Z,1.91
2022-12-08T15:21:37.048Z,1.81
2022-12-08T15:24:03.723Z,1.52
2022-12-08T15:26:39.133Z,1.74
2022-12-08T15:29:18.912Z,1.81
2022-12-08T15:31:46.220Z,1.72
2022-12-08T15:34:12.931Z,1.62
2022-12-08T15:36:40.135Z,1.80
2022-12-08T15:39:11.108Z,1.90
2022-12-08T15:41:38.058Z,2.14
2022-12-08T15:44:04.569Z,2.25
2022-12-08T15:46:31.921Z,2.45
2022-12-08T15:48:58.595Z,2.44
2022-12-08T15:51:25.251Z,2.58
2022-12-08T15:53:53.710Z,2.49
2022-12-08T15:56:27.463Z,2.43
2022-12-08T15:59:03.764Z,1.87
2022-12-08T16:01:30.476Z,1.78
2022-12-08T16:09:38.713Z,0.98
2022-12-08T16:13:13.899Z,1.08
2022-12-08T16:18:23.203Z,1.50
2022-12-08T16:23:45.230Z,1.34
2022-12-08T16:26:54.682Z,1.35
2022-12-08T16:29:07.169Z,1.30
2022-12-08T16:31:35.001Z,1.54
2022-12-08T16:34:01.768Z,1.35
2022-12-08T16:36:28.536Z,1.56
2022-12-08T16:38:55.158Z,1.64
2022-12-08T16:41:40.410Z,1.96
2022-12-08T16:44:07.063Z,1.97
2022-12-08T16:46:33.886Z,1.86
2022-12-08T16:49:00.419Z,1.47
2022-12-08T16:51:27.644Z,1.61
2022-12-08T16:53:58.489Z,1.51
2022-12-08T16:56:32.298Z,1.40
2022-12-08T16:59:00.750Z,1.39
2022-12-08T17:01:28.864Z,1.29
2022-12-08T17:04:22.948Z,1.28
2022-12-08T17:06:42.570Z,0.98
2022-12-08T17:09:09.361Z,1.09
2022-12-08T17:11:42.702Z,1.20
2022-12-08T17:14:13.087Z,1.26
2022-12-08T17:16:40.465Z,1.39
2022-12-08T17:19:07.255Z,1.39
2022-12-08T17:21:34.140Z,1.38
2022-12-08T17:24:00.779Z,1.48
2022-12-08T17:26:27.609Z,1.67
2022-12-08T17:29:01.942Z,1.63
2022-12-08T17:31:31.472Z,1.43
2022-12-08T17:34:04.230Z,1.42
2022-12-08T17:36:30.989Z,1.55
2022-12-08T17:38:59.936Z,1.35
2022-12-08T17:41:27.062Z,1.54
2022-12-08T17:43:53.789Z,1.42
2022-12-08T17:46:21.385Z,1.42
2022-12-08T17:48:48.543Z,1.19
2022-12-08T17:51:15.482Z,1.23
2022-12-08T17:53:42.709Z,1.06
2022-12-08T17:56:18.177Z,1.28
2022-12-08T17:58:45.649Z,1.20
2022-12-08T18:01:19.430Z,1.18
2022-12-08T18:03:47.323Z,1.33
2022-12-08T18:06:13.994Z,1.40
2022-12-08T18:08:40.930Z,1.48
2022-12-08T18:11:11.299Z,1.30
2022-12-08T18:13:38.067Z,1.17
2022-12-08T18:16:06.646Z,0.79
2022-12-08T18:18:33.335Z,0.71
2022-12-08T18:20:59.925Z,0.69
2022-12-08T18:23:27.894Z,0.76
2022-12-08T18:25:54.583Z,0.67
2022-12-08T18:28:21.638Z,0.70
2022-12-08T18:30:48.385Z,0.76
2022-12-08T18:33:15.120Z,0.87
2022-12-08T18:35:42.317Z,0.86
2022-12-08T18:38:08.865Z,0.71
2022-12-08T18:40:35.569Z,0.88
2022-12-08T18:43:02.189Z,0.99
2022-12-08T18:45:28.882Z,1.03
2022-12-08T18:47:55.659Z,1.40
2022-12-08T18:50:22.376Z,1.50
2022-12-08T18:52:49.024Z,1.15
2022-12-08T18:55:16.052Z,1.05
2022-12-08T18:57:43.379Z,1.22
2022-12-08T19:00:16.557Z,1.45
2022-12-08T19:02:43.652Z,1.17
2022-12-08T19:05:12.941Z,1.09
2022-12-08T19:07:39.675Z,1.22
2022-12-08T19:10:07.574Z,1.36
2022-12-08T19:12:34.581Z,1.51
2022-12-08T19:15:01.299Z,1.52
2022-12-08T19:17:29.659Z,1.37
2022-12-08T19:19:56.568Z,1.32
2022-12-08T19:22:23.241Z,1.15
2022-12-08T19:24:49.918Z,0.96
2022-12-08T19:27:16.999Z,0.72
2022-12-08T19:29:43.660Z,0.73
2022-12-08T19:32:10.345Z,0.61
2022-12-08T19:34:37.029Z,0.62
2022-12-08T19:37:03.817Z,0.60
2022-12-08T19:39:49.060Z,0.93
2022-12-08T19:42:37.091Z,0.97
2022-12-08T19:45:30.334Z,0.50
2022-12-08T19:47:57.046Z,0.41
2022-12-08T19:50:41.476Z,0.60
2022-12-08T19:53:15.717Z,0.59
2022-12-08T19:55:43.507Z,0.32
2022-12-08T19:58:11.174Z,0.30
2022-12-08T20:00:39.646Z,0.42
2022-12-08T20:03:08.071Z,0.61
2022-12-08T20:05:36.750Z,0.71
2022-12-08T20:08:07.229Z,0.10
2022-12-08T20:10:36.921Z,0.00
2022-12-08T20:13:23.496Z,-0.23
2022-12-08T20:15:53.444Z,-0.04
2022-12-08T20:18:20.340Z,-0.19
2022-12-08T20:20:48.088Z,-0.32
2022-12-08T20:23:15.718Z,-0.48
2022-12-08T20:25:44.815Z,-0.45
2022-12-08T20:28:12.313Z,-0.70
2022-12-08T20:30:43.301Z,-0.79
2022-12-08T20:33:13.129Z,-0.39
2022-12-08T20:35:40.027Z,-0.56
2022-12-08T20:38:06.508Z,-0.36
2022-12-08T20:40:33.327Z,-0.33
2022-12-08T20:42:59.924Z,0.01
2022-12-08T20:45:26.775Z,-0.30
2022-12-08T20:47:53.852Z,-0.17
2022-12-08T20:50:22.876Z,-0.29
2022-12-08T20:52:50.672Z,-0.62
2022-12-08T20:55:17.659Z,-0.87
2022-12-08T20:57:44.468Z,-1.21
2022-12-08T21:00:12.043Z,-1.17
2022-12-08T21:02:45.077Z,-0.95
2022-12-08T21:05:14.397Z,-1.33
2022-12-08T21:07:41.336Z,-1.44
2022-12-08T21:10:09.106Z,-1.65
2022-12-08T21:12:36.077Z,-1.69
2022-12-08T21:15:02.958Z,-1.54
2022-12-08T21:17:30.019Z,-1.89
2022-12-08T21:19:56.682Z,-1.80
2022-12-08T21:22:23.351Z,-1.88
2022-12-08T21:24:50.491Z,-2.21
2022-12-08T21:27:17.920Z,-2.23
2022-12-08T21:29:45.261Z,-2.27
2022-12-08T21:32:13.319Z,-2.12
2022-12-08T21:34:40.487Z,-2.19
2022-12-08T21:37:07.417Z,-2.09
2022-12-08T21:39:34.660Z,-2.01
2022-12-08T21:42:22.745Z,-2.04
2022-12-08T21:44:49.896Z,-2.14
2022-12-08T21:47:16.834Z,-2.11
2022-12-08T21:49:43.812Z,-2.05
2022-12-08T21:52:11.297Z,-2.17
2022-12-08T21:54:37.871Z,-1.90
2022-12-08T21:57:05.300Z,-1.89
2022-12-08T21:59:32.185Z,-1.77
2022-12-08T22:01:59.378Z,-1.38
2022-12-08T22:04:26.482Z,-1.58
2022-12-08T22:06:54.005Z,-1.25
2022-12-08T22:09:20.925Z,-1.34
2022-12-08T22:11:47.876Z,-1.66
2022-12-08T22:14:15.521Z,-1.83
2022-12-08T22:16:43.369Z,-2.01
2022-12-08T22:19:10.689Z,-2.24
2022-12-08T22:21:38.267Z,-2.14
2022-12-08T22:24:06.191Z,-2.15
2022-12-08T22:26:33.584Z,-2.33
2022-12-08T22:29:00.476Z,-2.21
2022-12-08T22:31:27.819Z,-2.38
2022-12-08T22:33:55.307Z,-2.33
2022-12-08T22:36:24.558Z,-2.39
2022-12-08T22:38:52.408Z,-2.50
2022-12-08T22:41:20.408Z,-2.57
2022-12-08T22:43:47.932Z,-2.54
2022-12-08T22:46:20.770Z,-2.27
2022-12-08T22:48:48.201Z,-2.13
2022-12-08T22:51:15.811Z,-1.95
2022-12-08T22:53:42.570Z,-1.76
2022-12-08T22:56:11.839Z,-1.78
2022-12-08T22:58:39.886Z,-2.00
2022-12-08T23:01:07.542Z,-1.91
2022-12-08T23:03:35.114Z,-2.17
2022-12-08T23:06:02.486Z,-2.08
2022-12-08T23:08:30.165Z,-2.31
2022-12-08T23:10:57.947Z,-2.07
2022-12-08T23:13:24.910Z,-1.69
2022-12-08T23:15:51.429Z,-1.83
2022-12-08T23:18:19.326Z,-1.78
2022-12-08T23:20:47.170Z,-2.20
2022-12-08T23:23:14.263Z,-1.90
2022-12-08T23:25:41.795Z,-1.95
2022-12-08T23:28:09.405Z,-2.03
2022-12-08T23:30:36.506Z,-2.02
2022-12-08T23:33:03.237Z,-2.10
2022-12-08T23:35:29.931Z,-2.19
2022-12-08T23:37:56.775Z,-2.41
2022-12-08T23:40:23.408Z,-2.26
2022-12-08T23:42:50.086Z,-2.21
2022-12-08T23:45:16.838Z,-2.35
2022-12-08T23:47:43.702Z,-2.40
2022-12-08T23:50:11.227Z,-2.44
2022-12-08T23:52:39.897Z,-2.66
2022-12-08T23:55:07.839Z,-2.65
2022-12-08T23:57:38.602Z,-2.71
